Latest Weather Observations for Ballina

IDN60801

Issued at 4:32 pm EST Saturday 4 July 2015 (issued every 30 minutes, with the page automatically refreshed every 10 minutes)

About weather observations | Map of weather stations | Latest weather observations for NSW | Other Formats
Station Details ID: 058198 Name: BALLINA AIRPORT AWS Lat: -28.84 Lon: 153.56 Height: 1.3 m
Data from the previous 72 hours. | See also: Recent months at Ballina
Date/Time
EST
Temp
°C
App
Temp
°C
Dew
Point
Rel
Hum
%
Delta-T
°C
Wind Press
QNH
hPa
Press
MSL
hPa
Rain
since 9 am
mm
Dir
 
Spd
km/h
Gust
km/h
Spd
kts
Gust
kts
04/04:30pm 17.3 16.3 10.9 66 3.4 ESE 7 11 4 6 1020.6 1020.6 0.0
04/04:00pm 18.4 16.6 11.0 62 4.0 ESE 11 13 6 7 1020.7 1020.7 0.0
04/03:30pm 20.3 20.4 10.1 52 5.5 CALM 0 0 0 0 1020.6 1020.6 0.0
04/03:00pm 20.2 19.2 10.3 53 5.3 W 6 13 3 7 1020.6 1020.6 0.0
04/02:30pm 19.7 18.6 10.7 56 4.9 WSW 7 13 4 7 1020.6 1020.6 0.0
04/02:00pm 19.5 17.7 10.8 57 4.7 SW 11 13 6 7 1020.7 1020.7 0.0
04/01:30pm 19.2 17.6 10.2 56 4.8 WSW 9 15 5 8 1021.0 1021.0 0.0
04/01:00pm 19.0 16.4 10.8 59 4.4 W 15 20 8 11 1021.4 1021.4 0.0
04/12:30pm 18.2 15.2 10.6 61 4.1 WSW 17 22 9 12 1021.9 1021.9 0.0
04/12:00pm 18.0 15.0 10.6 62 4.0 WSW 17 22 9 12 1022.6 1022.6 0.0
04/11:30am 17.7 15.1 10.6 63 3.8 WSW 15 19 8 10 1023.1 1023.1 0.0
04/11:00am 16.8 13.2 10.0 64 3.6 WSW 19 24 10 13 1023.5 1023.5 0.0
04/10:30am 16.2 13.2 10.5 69 3.0 W 17 24 9 13 1023.9 1023.9 0.0
04/10:00am 15.2 12.5 10.4 73 2.5 W 15 19 8 10 1024.1 1024.1 0.0
04/09:30am 14.1 10.6 8.9 71 2.6 WSW 17 20 9 11 1024.2 1024.2 0.0
04/09:00am 13.6 10.6 9.3 75 2.2 WSW 15 22 8 12 1024.2 1024.2 5.0
04/08:30am 13.1 10.4 8.8 75 2.2 WSW 13 17 7 9 1023.9 1023.9 5.0
04/08:00am 12.3 9.1 8.6 78 1.8 WSW 15 19 8 10 1023.6 1023.6 5.0
04/07:30am 10.8 7.8 7.7 81 1.5 WSW 13 17 7 9 1023.4 1023.4 5.0
04/07:00am 11.6 8.7 8.1 79 1.7 WSW 13 17 7 9 1023.2 1023.2 5.0
04/06:30am 11.2 8.7 8.4 83 1.4 WSW 11 13 6 7 1023.1 1023.1 5.0
04/06:00am 10.8 7.8 7.9 82 1.4 WSW 13 17 7 9 1023.0 1023.0 5.0
04/05:30am 10.8 7.9 8.2 84 1.3 WSW 13 19 7 10 1022.7 1022.7 5.0
04/05:00am 10.6 7.7 8.0 84 1.3 WSW 13 15 7 8 1022.7 1022.7 5.0
04/04:30am 11.3 7.8 8.7 84 1.3 W 17 22 9 12 1022.9 1022.9 5.0
04/04:00am 11.8 8.4 9.2 84 1.3 WSW 17 22 9 12 1023.1 1023.1 5.0
04/03:30am 11.0 7.5 8.8 86 1.1 WSW 17 20 9 11 1023.0 1023.0 5.0
04/03:00am 11.5 7.6 9.4 87 1.1 WSW 20 26 11 14 1022.8 1022.8 5.0
04/02:44am 11.6 8.8 9.9 89 0.9 WSW 15 19 8 10 1022.8 1022.8 5.0
04/02:30am 11.8 8.6 10.0 89 0.9 SW 17 24 9 13 1022.9 1022.9 5.0
04/02:20am 11.8 9.3 9.7 87 1.1 SW 13 17 7 9 1022.9 1022.9 4.6
04/02:00am 11.5 9.3 9.2 86 1.1 SW 11 15 6 8 1023.0 1023.0 4.4
04/01:30am 11.3 8.8 9.6 89 0.9 W 13 15 7 8 1022.9 1022.9 4.4
04/01:00am 12.2 11.3 11.4 95 0.4 NNW 7 9 4 5 1023.1 1023.1 4.2
04/12:34am 12.2 10.9 11.3 94 0.5 NE 9 11 5 6 1023.1 1023.1 4.0
04/12:30am 12.3 11.0 11.4 94 0.5 ENE 9 11 5 6 1023.1 1023.1 4.0
04/12:18am 12.4 11.5 11.3 93 0.6 E 7 11 4 6 1023.2 1023.2 4.0
04/12:17am 12.4 11.5 11.3 93 0.6 E 7 11 4 6 1023.2 1023.2 3.8
04/12:05am 12.3 10.9 11.0 92 0.7 ESE 9 13 5 7 1023.3 1023.3 3.6
04/12:00am 12.3 11.2 10.7 90 0.8 S 7 11 4 6 1023.4 1023.4 3.2
 
Date/Time
EST
Temp
°C
App
Temp
°C
Dew
Point
Rel
Hum
%
Delta-T
°C
Wind Press
QNH
hPa
Press
MSL
hPa
Rain
since 9 am
mm
Dir
 
Spd
km/h
Gust
km/h
Spd
kts
Gust
kts
03/11:35pm 12.4 11.1 11.1 92 0.7 W 9 11 5 6 1023.4 1023.4 3.0
03/11:30pm 12.4 11.6 11.0 91 0.7 WSW 6 9 3 5 1023.4 1023.4 3.0
03/11:00pm 12.7 11.2 10.4 86 1.2 SSW 9 13 5 7 1023.9 1023.9 2.2
03/10:50pm 13.2 11.5 10.0 81 1.6 S 9 13 5 7 1023.9 1023.9 1.2
03/10:30pm 13.7 10.6 8.7 72 2.5 WSW 15 19 8 10 1023.7 1023.7 0.2
03/09:30pm 14.3 11.2 8.9 70 2.7 SW 15 22 8 12 1023.7 1023.7 0.2
03/09:00pm 14.0 11.6 8.8 71 2.6 SW 11 17 6 9 1023.7 1023.7 0.2
03/08:30pm 14.5 11.5 9.1 70 2.8 SW 15 20 8 11 1023.6 1023.6 0.2
03/08:00pm 14.4 11.3 9.0 70 2.7 SW 15 22 8 12 1023.5 1023.5 0.2
03/07:30pm 14.0 12.5 10.6 80 1.8 SW 9 13 5 7 1023.4 1023.4 0.2
03/07:00pm 14.8 11.5 9.6 71 2.7 SW 17 28 9 15 1023.0 1023.0 0.0
03/06:30pm 15.2 11.5 9.6 69 2.9 SW 19 28 10 15 1022.8 1022.8 0.0
03/06:00pm 15.6 12.7 9.7 68 3.1 SW 15 20 8 11 1022.6 1022.6 0.0
03/05:30pm 16.5 12.9 10.4 67 3.2 SSW 20 28 11 15 1022.2 1022.2 0.0
03/05:00pm 16.5 12.9 10.6 68 3.1 SSW 20 28 11 15 1022.3 1022.3 0.0
03/04:30pm 16.9 12.9 10.3 65 3.5 SSW 22 32 12 17 1022.1 1022.1 0.0
03/04:00pm 16.8 12.7 10.0 64 3.6 SSW 22 32 12 17 1021.9 1021.9 0.0
03/03:30pm 17.1 12.3 10.2 64 3.7 SSW 26 41 14 22 1021.7 1021.7 0.0
03/03:00pm 17.3 12.7 9.7 61 4.0 SSW 24 35 13 19 1021.7 1021.7 0.0
03/02:30pm 17.5 13.0 9.9 61 4.0 SSW 24 39 13 21 1021.6 1021.6 0.0
03/02:00pm 17.4 13.1 9.3 59 4.2 SW 22 37 12 20 1021.5 1021.5 0.0
03/01:30pm 17.1 12.5 9.5 61 4.0 SSW 24 39 13 21 1021.5 1021.5 0.0
03/01:00pm 17.0 12.2 8.7 58 4.2 SSW 24 39 13 21 1021.7 1021.7 0.0
03/12:30pm 16.9 12.2 9.1 60 4.0 SW 24 33 13 18 1022.0 1022.0 0.0
03/12:00pm 17.0 12.6 8.9 59 4.2 SW 22 33 12 18 1022.3 1022.3 0.0
03/11:30am 16.1 10.8 6.8 54 4.6 WSW 24 37 13 20 1022.7 1022.7 0.0
03/11:00am 15.3 9.9 6.3 55 4.3 SW 24 37 13 20 1022.9 1022.9 0.0
03/10:30am 15.0 9.7 5.2 52 4.6 WSW 22 32 12 17 1023.2 1023.2 0.0
03/10:00am 14.6 8.9 4.9 52 4.5 WSW 24 35 13 19 1023.3 1023.3 0.0
03/09:30am 13.9 7.9 3.4 49 4.7 WSW 24 32 13 17 1023.4 1023.4 0.0
03/09:00am 13.1 7.4 2.9 50 4.5 WSW 22 30 12 16 1023.3 1023.3 0.0
03/08:30am 12.1 6.8 3.1 54 4.0 WSW 20 28 11 15 1023.1 1023.1 0.0
03/08:00am 11.3 6.2 2.9 56 3.6 W 19 24 10 13 1022.8 1022.8 0.0
03/07:30am 9.1 4.4 2.9 65 2.6 W 17 19 9 10 1022.6 1022.6 0.0
03/07:00am 9.1 4.7 2.7 64 2.7 WSW 15 19 8 10 1022.4 1022.4 0.0
03/06:30am 8.8 4.3 2.4 64 2.7 WSW 15 19 8 10 1022.0 1022.0 0.0
03/06:00am 9.4 4.5 2.3 61 3.0 WSW 17 20 9 11 1021.5 1021.5 0.0
03/05:30am 9.6 4.7 2.0 59 3.2 WSW 17 20 9 11 1021.3 1021.3 0.0
03/05:00am 8.3 3.9 2.5 67 2.4 W 15 17 8 9 1021.1 1021.1 0.0
03/04:30am 9.3 4.5 2.6 63 2.8 WSW 17 20 9 11 1020.9 1020.9 0.0
03/04:00am 9.9 5.0 2.3 59 3.2 WSW 17 24 9 13 1020.7 1020.7 0.0
03/03:30am 9.7 4.9 2.8 62 2.9 WSW 17 22 9 12 1020.6 1020.6 0.0
03/03:00am 9.2 4.8 2.8 64 2.7 WSW 15 19 8 10 1020.6 1020.6 0.0
03/02:30am 10.1 5.4 2.9 61 3.1 WSW 17 22 9 12 1020.6 1020.6 0.0
03/02:00am 10.1 5.4 2.9 61 3.1 WSW 17 24 9 13 1020.7 1020.7 0.0
03/01:30am 10.3 5.5 2.7 59 3.3 WSW 17 24 9 13 1020.7 1020.7 0.0
03/01:00am 10.7 5.9 2.8 58 3.4 WSW 17 22 9 12 1020.5 1020.5 0.0
03/12:30am 10.3 6.0 3.1 61 3.1 WSW 15 22 8 12 1020.4 1020.4 0.0
03/12:00am 9.7 5.8 3.4 65 2.7 W 13 17 7 9 1020.4 1020.4 0.0
 
Date/Time
EST
Temp
°C
App
Temp
°C
Dew
Point
Rel
Hum
%
Delta-T
°C
Wind Press
QNH
hPa
Press
MSL
hPa
Rain
since 9 am
mm
Dir
 
Spd
km/h
Gust
km/h
Spd
kts
Gust
kts
02/11:30pm 9.5 5.6 3.5 66 2.6 W 13 17 7 9 1020.3 1020.3 0.0
02/11:00pm 9.7 5.4 3.0 63 2.9 W 15 19 8 10 1020.4 1020.4 0.0
02/10:30pm 11.1 6.4 3.2 58 3.5 W 17 24 9 13 1020.2 1020.2 0.0
02/10:00pm 11.9 6.7 2.6 53 4.0 W 19 28 10 15 1020.1 1020.1 0.0
02/09:30pm 12.2 7.4 2.6 52 4.2 W 17 24 9 13 1019.8 1019.8 0.0
02/09:00pm 13.1 7.5 1.5 45 5.0 W 20 30 11 16 1019.1 1019.1 0.0
02/08:30pm 13.9 8.5 2.5 46 5.0 WNW 20 28 11 15 1018.6 1018.6 0.0
02/08:00pm 14.2 9.4 2.8 46 5.1 WNW 17 24 9 13 1017.9 1017.9 0.0
02/07:30pm 12.6 8.5 4.1 56 3.8 W 15 20 8 11 1018.0 1018.0 0.0
02/07:00pm 13.5 9.6 5.4 58 3.8 WNW 15 24 8 13 1017.6 1017.6 0.0
02/06:30pm 11.4 9.7 7.7 78 1.8 WNW 6 9 3 5 1017.4 1017.4 0.0
02/06:00pm 11.9 10.4 9.3 84 1.3 WNW 7 9 4 5 1017.3 1017.3 0.0
02/05:30pm 12.9 10.7 9.2 78 1.9 WNW 11 13 6 7 1017.1 1017.1 0.0
02/05:00pm 15.1 13.8 9.9 71 2.7 WNW 7 9 4 5 1017.0 1017.0 0.0
02/04:30pm 18.3 16.4 7.4 49 5.5 WNW 7 11 4 6 1016.9 1016.9 0.0
02/04:00pm 18.7 15.7 7.8 49 5.6 W 13 19 7 10 1017.1 1017.1 0.0
02/03:30pm 19.1 15.9 6.9 45 6.1 NW 13 19 7 10 1016.5 1016.5 0.0
02/03:00pm 18.8 16.3 9.6 55 4.9 NW 13 19 7 10 1016.7 1016.7 0.0
02/02:30pm 18.5 15.4 9.0 54 5.0 WNW 15 19 8 10 1017.1 1017.1 0.0
02/02:00pm 19.9 17.0 9.8 52 5.4 WNW 15 20 8 11 1017.1 1017.1 0.0
02/01:30pm 18.6 14.7 8.6 52 5.2 WNW 19 22 10 12 1017.1 1017.1 0.0
02/01:00pm 18.3 14.2 8.6 53 5.0 W 20 28 11 15 1017.5 1017.5 0.0
02/12:30pm 19.0 15.8 10.0 56 4.8 WNW 17 24 9 13 1018.0 1018.0 0.0
02/12:00pm 18.2 14.3 8.5 53 5.0 WNW 19 28 10 15 1018.4 1018.4 0.0
02/11:30am 18.6 14.8 9.7 56 4.7 W 20 30 11 16 1019.1 1019.1 0.0
02/11:00am 18.2 14.1 10.1 59 4.3 W 22 28 12 15 1019.9 1019.9 0.0
02/10:30am 17.6 14.4 9.8 60 4.1 WNW 17 24 9 13 1020.4 1020.4 0.0
02/10:00am 17.1 13.7 10.5 65 3.5 WNW 19 28 10 15 1020.8 1020.8 0.0
02/09:30am 16.6 13.4 11.1 70 3.0 WNW 19 24 10 13 1021.3 1021.3 0.0
02/09:00am 15.8 13.0 9.9 68 3.1 WNW 15 20 8 11 1021.2 1021.2 0.6
02/08:30am 14.9 12.3 10.7 76 2.2 W 15 19 8 10 1021.1 1021.1 0.6
02/08:00am 13.9 11.3 10.7 81 1.7 W 15 20 8 11 1021.1 1021.1 0.6
02/07:30am 12.8 11.7 11.9 94 0.5 WSW 9 13 5 7 1021.0 1021.0 0.6
02/07:00am 12.2 10.2 11.6 96 0.3 W 13 17 7 9 1020.9 1020.9 0.6
02/06:30am 11.1 9.3 10.8 98 0.2 W 11 13 6 7 1020.8 1020.8 0.6
02/06:25am 11.0 9.2 10.7 98 0.2 W 11 13 6 7 1020.8 1020.8 0.6
02/06:00am 11.2 10.4 10.9 98 0.2 W 6 9 3 5 1020.3 1020.3 0.6
02/05:39am 11.4 11.8 11.1 98 0.2 CALM 0 0 0 0 1020.1 1020.1 0.6
02/05:30am 11.6 12.0 11.1 97 0.3 CALM 0 0 0 0 1020.0 1020.0 0.6
02/05:00am 12.1 11.2 11.5 96 0.3 W 7 9 4 5 1019.9 1019.9 0.6
02/04:30am 12.7 11.9 11.8 94 0.5 WSW 7 7 4 4 1020.0 1020.0 0.6
02/04:00am 13.4 12.3 12.1 92 0.7 WSW 9 13 5 7 1020.4 1020.4 0.6
02/03:30am 13.6 13.2 12.3 92 0.7 WSW 6 9 3 5 1020.5 1020.5 0.6
02/03:00am 14.0 12.8 12.7 92 0.7 W 11 15 6 8 1020.4 1020.4 0.6
02/02:30am 14.5 12.7 13.2 92 0.7 W 15 19 8 10 1020.4 1020.4 0.6
02/02:00am 14.5 12.7 13.4 93 0.6 W 15 20 8 11 1020.8 1020.8 0.6
02/01:30am 14.6 13.6 13.3 92 0.7 W 11 13 6 7 1021.0 1021.0 0.6
02/01:00am 14.7 15.2 14.1 96 0.3 W 4 13 2 7 1021.1 1021.1 0.6
02/12:30am 14.7 14.2 13.9 95 0.4 WNW 9 9 5 5 1021.3 1021.3 0.6
02/12:00am 14.9 14.9 14.1 95 0.4 NW 7 9 4 5 1021.5 1021.5 0.6
 
Date/Time
EST
Temp
°C
App
Temp
°C
Dew
Point
Rel
Hum
%
Delta-T
°C
Wind Press
QNH
hPa
Press
MSL
hPa
Rain
since 9 am
mm
Dir
 
Spd
km/h
Gust
km/h
Spd
kts
Gust
kts
01/11:30pm 14.9 14.5 14.1 95 0.5 WNW 9 13 5 7 1022.0 1022.0 0.6
01/11:00pm 15.0 13.6 14.4 96 0.3 WSW 15 20 8 11 1022.1 1022.1 0.6
01/10:30pm 15.1 13.4 14.6 97 0.3 W 17 20 9 11 1022.0 1022.0 0.2
01/10:00pm 14.2 13.0 14.0 99 0.1 W 13 15 7 8 1022.1 1022.1 0.0
01/09:30pm 12.9 13.7 12.7 99 0.1 CALM 0 0 0 0 1022.0 1022.0 0.0
01/09:27pm 12.9 13.7 12.7 99 0.1 CALM 0 0 0 0 1022.0 1022.0 0.0
01/09:00pm 12.3 12.9 11.8 97 0.3 CALM 0 0 0 0 1022.1 1022.1 0.0
01/08:54pm 12.3 12.9 11.8 97 0.3 CALM 0 0 0 0 1022.1 1022.1 0.0
01/08:30pm 13.0 13.8 12.5 97 0.3 CALM 0 0 0 0 1022.2 1022.2 0.0
01/08:00pm 13.3 14.1 12.7 96 0.3 CALM 0 0 0 0 1022.0 1022.0 0.0
01/07:30pm 13.7 14.3 13.2 97 0.3 SSE 2 6 1 3 1021.8 1021.8 0.0
01/07:00pm 13.5 13.6 12.6 94 0.5 SSE 4 6 2 3 1021.6 1021.6 0.0
01/06:30pm 14.5 14.3 13.5 94 0.6 SSE 7 7 4 4 1021.5 1021.5 0.0
01/06:00pm 15.2 16.4 13.9 92 0.7 CALM 0 0 0 0 1021.2 1021.2 0.0
01/05:30pm 15.8 17.0 13.8 88 1.1 CALM 0 0 0 0 1021.0 1021.0 0.0
01/05:00pm 17.6 17.4 13.7 78 2.2 SSE 7 9 4 5 1020.7 1020.7 0.0

Other Formats:

Comma delimited format used in spreadsheet applications
http://www.bom.gov.au/fwo/IDN60801/IDN60801.94596.axf

JavaScript Object Notation format (JSON) in row-major order
http://www.bom.gov.au/fwo/IDN60801/IDN60801.94596.json